Weather reports worldwide

Advertisment
Passo Rolle, Italy (16021): temperature & dewpoint: 06.12.2019 12:00:00 - 12.12.2019 12:00:00 (CET)Passo Rolle, Italy (16021): wind speed: 06.12.2019 12:00:00 - 12.12.2019 12:00:00 (CET)Passo Rolle, Italy (16021): wind direction: 06.12.2019 12:00:00 - 12.12.2019 12:00:00 (CET)Passo Rolle, Italy (16021): visibility: 06.12.2019 12:00:00 - 12.12.2019 12:00:00 (CET)
Date & Time tt [°C] td [°C] ff [km/h] ff [kn] dd vv [km]
12.12.2019 12:00:00 -7,0 -11,0 15 8 NNW 10
12.12.2019 11:00:00 -7,0 -13,0 15 8 NNW 10
12.12.2019 10:00:00 -6,4 -14,9 9 5 NNW 20
12.12.2019 09:00:00 -6,0 -16,0 9 5 NW 10
12.12.2019 08:00:00 -6,0 -16,0 8 4 WNW 10
12.12.2019 07:00:00 -5,6 -17,4 8 4 NNW 20
12.12.2019 06:00:00 -5,0 -18,0 5 3 WNW 10
12.12.2019 05:00:00 -5,0 -18,0 9 5 ESE 10
12.12.2019 04:00:00 -5,0 -18,1 16 9 SE 10
12.12.2019 03:00:00 - - - - - -
12.12.2019 02:00:00 - - - - - -
12.12.2019 01:00:00 -4,0 -19,4 16 9 SE 10
12.12.2019 00:00:00 - - - - - -
11.12.2019 23:00:00 - - - - - -
11.12.2019 22:00:00 -3,8 -20,1 21 11 ESE 10
11.12.2019 21:00:00 - - - - - -
11.12.2019 20:00:00 - - - - - -
11.12.2019 19:00:00 -2,8 -20,6 4 2 ESE 10
11.12.2019 18:00:00 -3,0 -21,0 5 3 ESE 10
11.12.2019 17:00:00 -2,0 -22,0 2 1 SE 10
11.12.2019 16:00:00 -1,0 -19,0 11 6 SE 50
11.12.2019 15:00:00 -1,0 -18,0 21 11 SE 10
11.12.2019 14:00:00 -1,0 -18,0 21 11 SE 10
11.12.2019 13:00:00 -0,8 -20,4 13 7 ESE 50
11.12.2019 12:00:00 -1,0 -25,0 8 4 N 10
11.12.2019 11:00:00 -2,0 -27,0 11 6 N 10
11.12.2019 10:00:00 -2,0 -29,6 4 2 NW 50
11.12.2019 09:00:00 -3,0 -30,0 13 7 NNW 10
11.12.2019 08:00:00 -3,0 -30,0 13 7 NNW 10
11.12.2019 07:00:00 -4,0 -30,0 21 11 N 20
11.12.2019 06:00:00 -5,0 -29,0 18 10 N 10
11.12.2019 05:00:00 -5,0 -27,0 16 9 NNW 10
11.12.2019 04:00:00 -5,0 -28,4 18 10 N 20
11.12.2019 03:00:00 - - - - - -
11.12.2019 02:00:00 - - - - - -
11.12.2019 01:00:00 -6,2 -27,3 9 5 NNW 20
11.12.2019 00:00:00 - - - - - -
10.12.2019 23:00:00 - - - - - -
10.12.2019 22:00:00 -6,4 -25,7 8 4 NNW 20
10.12.2019 21:00:00 - - - - - -
10.12.2019 20:00:00 - - - - - -
10.12.2019 19:00:00 -7,2 -16,6 13 7 NW 20
10.12.2019 18:00:00 -7,0 -16,0 15 8 NW 10
10.12.2019 17:00:00 -7,0 -16,0 21 11 W 10
10.12.2019 16:00:00 -5,6 -15,6 15 8 WNW 50
10.12.2019 15:00:00 -5,0 -15,0 11 6 N 10
10.12.2019 14:00:00 -5,0 -13,0 24 13 WNW 10
10.12.2019 13:00:00 -4,6 -13,0 26 14 NW 50
10.12.2019 12:00:00 -5,0 -12,0 24 13 NW 10
10.12.2019 11:00:00 -5,0 -11,0 24 13 WNW 10
10.12.2019 10:00:00 -4,6 -11,6 31 17 NW 30
10.12.2019 09:00:00 -5,0 -12,0 22 12 NW 10
10.12.2019 08:00:00 -5,0 -12,0 26 14 NW 10
10.12.2019 07:00:00 -5,0 -13,1 16 9 NW 20
10.12.2019 06:00:00 -5,0 -13,0 26 14 N 10
10.12.2019 05:00:00 -3,0 -14,0 34 18 NE 10
10.12.2019 04:00:00 -3,0 -14,7 35 19 N 15
10.12.2019 03:00:00 - - - - - -
10.12.2019 02:00:00 - - - - - -
10.12.2019 01:00:00 -4,2 -8,5 13 7 NW 20
10.12.2019 00:00:00 - - - - - -
09.12.2019 23:00:00 - - - - - -
09.12.2019 22:00:00 -4,0 -10,4 9 5 N 15
09.12.2019 21:00:00 - - - - - -
09.12.2019 20:00:00 - - - - - -
09.12.2019 19:00:00 -3,6 -7,4 11 6 N 15
09.12.2019 18:00:00 -4,0 -8,0 9 5 NNW 10
09.12.2019 17:00:00 -3,0 -5,0 8 4 NNW 10
09.12.2019 16:00:00 -2,6 -3,7 11 6 N 20
09.12.2019 15:00:00 -2,0 -3,0 8 4 WNW 10
09.12.2019 14:00:00 -2,0 -3,0 8 4 W 10
09.12.2019 13:00:00 -1,4 -4,4 8 4 ESE 20
09.12.2019 12:00:00 -2,0 -4,0 8 4 WNW 10
09.12.2019 11:00:00 -2,0 -5,0 4 2 N 10
09.12.2019 10:00:00 -1,8 -4,5 5 3 W 20
09.12.2019 09:00:00 -2,0 -5,0 5 3 ESE 10
09.12.2019 08:00:00 - - - - - -
09.12.2019 07:00:00 -2,4 -4,7 0 0 N 10
09.12.2019 06:00:00 -3,0 -5,0 0 0 N 10
09.12.2019 05:00:00 -3,0 -6,0 0 0 N 10
09.12.2019 04:00:00 -3,2 -5,5 4 2 ENE 10
09.12.2019 03:00:00 - - - - - -
09.12.2019 02:00:00 - - - - - -
09.12.2019 01:00:00 -4,0 -5,4 8 4 WNW 10
09.12.2019 00:00:00 - - - - - -
08.12.2019 23:00:00 - - - - - -
08.12.2019 22:00:00 -3,8 -5,2 5 3 NNW 10
08.12.2019 21:00:00 - - - - - -
08.12.2019 20:00:00 - - - - - -
08.12.2019 19:00:00 -3,8 -7,7 0 0 N 10
08.12.2019 18:00:00 -3,0 -8,0 5 3 NNW 10
08.12.2019 17:00:00 -3,0 -8,0 9 5 NW 10
08.12.2019 16:00:00 -1,4 -10,0 8 4 WNW 60
08.12.2019 15:00:00 0,0 -10,0 5 3 WNW 10
08.12.2019 14:00:00 0,0 -10,0 5 3 WNW 10
08.12.2019 13:00:00 -0,4 -10,1 0 0 N 72
08.12.2019 12:00:00 -1,0 -13,0 4 2 NNE 10
08.12.2019 11:00:00 -2,0 -13,0 5 3 NW 10
08.12.2019 10:00:00 -2,2 -13,4 4 2 NNW 80
08.12.2019 09:00:00 -3,0 -13,0 8 4 ESE 10
08.12.2019 08:00:00 -2,0 -13,0 0 0 N 10
08.12.2019 07:00:00 -3,0 -13,0 0 0 N 20
08.12.2019 06:00:00 -3,0 -13,0 4 2 NNW 10
08.12.2019 05:00:00 -3,0 -13,0 0 0 N 10
08.12.2019 04:00:00 -2,8 -12,8 4 2 N 10
08.12.2019 03:00:00 - - - - - -
08.12.2019 02:00:00 - - - - - -
08.12.2019 01:00:00 -2,4 -10,4 0 0 N 10
08.12.2019 00:00:00 - - - - - -
07.12.2019 23:00:00 - - - - - -
07.12.2019 22:00:00 -2,2 -11,2 0 0 N 10
07.12.2019 21:00:00 - - - - - -
07.12.2019 20:00:00 - - - - - -
07.12.2019 19:00:00 -1,6 -9,2 13 7 NNE 10
07.12.2019 18:00:00 -1,0 -10,0 11 6 NNE 10
07.12.2019 17:00:00 -1,0 -10,0 4 2 NE 10
07.12.2019 16:00:00 0,2 -10,1 5 3 N 72
07.12.2019 15:00:00 - - - - - -
07.12.2019 14:00:00 0,0 -9,0 9 5 NW 10
07.12.2019 13:00:00 0,0 -9,2 5 3 NNE 72
07.12.2019 12:00:00 - - - - - -
07.12.2019 11:00:00 - - - - - -
07.12.2019 10:00:00 -0,4 -8,6 11 6 NNE 72
07.12.2019 09:00:00 - - - - - -
07.12.2019 08:00:00 - - - - - -
07.12.2019 07:00:00 - - - - - -
07.12.2019 06:00:00 - - - - - -
07.12.2019 05:00:00 - - - - - -
07.12.2019 04:00:00 - - - - - -
07.12.2019 03:00:00 - - - - - -
07.12.2019 02:00:00 - - - - - -
07.12.2019 01:00:00 - - - - - -
07.12.2019 00:00:00 - - - - - -
06.12.2019 23:00:00 - - - - - -
06.12.2019 22:00:00 - - - - - -
06.12.2019 21:00:00 - - - - - -
06.12.2019 20:00:00 - - - - - -
06.12.2019 19:00:00 -3,2 -14,9 8 4 N 10
06.12.2019 18:00:00 -3,0 -15,0 9 5 N 10
06.12.2019 17:00:00 -2,0 -14,0 5 3 NNW 10
06.12.2019 16:00:00 -1,2 -14,4 8 4 NNW 72
06.12.2019 15:00:00 - - - - - -
06.12.2019 14:00:00 - - - - - -
06.12.2019 13:00:00 -1,2 -14,4 5 3 N 72
06.12.2019 12:00:00 - - - - - -

tt = temperature
td = dewpoint
ff = wind speed
dd = wind direction
vv = visibility

Next stations